Time;durP1;ratioP1;P1;durP2;ratioP2;P2;SDS_P1;SDS_P2;PMS_P1;PMS_P2;Temp;Humidity;BMP_temperature;BMP_pressure;BME280_temperature;BME280_humidity;BME280_pressure;Samples;Min_cycle;Max_cycle;Signal;HPM_P1;HPM_P2
2023/01/17 00:01:14;;;;;;;0.30;0.30;;;2.80;99.90;;;;;;5074895;28;20450;-85
2023/01/17 00:11:50;;;;;;;0.30;0.20;;;2.00;99.90;;;;;;5078583;28;20542;-85
2023/01/17 00:14:17;;;;;;;0.30;0.20;;;1.80;99.90;;;;;;5079164;28;20449;-85
2023/01/17 00:16:44;;;;;;;0.30;0.30;;;1.60;99.90;;;;;;5076924;28;20503;-85
2023/01/17 01:33:52;;;;;;;0.30;0.23;;;1.20;99.90;;;;;;5073324;28;20413;-85
2023/01/17 01:36:19;;;;;;;0.30;0.20;;;1.30;99.90;;;;;;5073110;28;20866;-85
2023/01/17 01:38:47;;;;;;;0.30;0.27;;;1.30;99.90;;;;;;5073167;28;20449;-85
2023/01/17 01:41:13;;;;;;;0.30;0.30;;;1.30;99.90;;;;;;5072862;28;20457;-85
2023/01/17 01:43:45;;;;;;;0.33;0.33;;;1.40;99.90;;;;;;5073282;28;20449;-85
2023/01/17 01:46:16;;;;;;;0.30;0.20;;;1.40;99.90;;;;;;5073068;28;20828;-85
2023/01/17 01:48:49;;;;;;;0.30;0.20;;;1.40;99.90;;;;;;5072891;28;20995;-85
2023/01/17 01:51:19;;;;;;;0.30;0.20;;;1.50;99.90;;;;;;5072761;28;20487;-85
2023/01/17 01:53:49;;;;;;;0.30;0.20;;;1.50;99.90;;;;;;5073331;28;20920;-85
2023/01/17 01:56:18;;;;;;;0.30;0.30;;;1.50;99.90;;;;;;5072896;28;20474;-85
2023/01/17 01:58:49;;;;;;;0.30;0.20;;;1.50;99.90;;;;;;5073029;28;20519;-85
2023/01/17 02:01:18;;;;;;;0.30;0.20;;;1.50;99.90;;;;;;5073548;28;20425;-85
2023/01/17 02:03:46;;;;;;;0.30;0.20;;;1.50;99.90;;;;;;5073028;28;20446;-85
2023/01/17 02:06:24;;;;;;;0.30;0.20;;;1.60;99.90;;;;;;5072540;28;20468;-84
2023/01/17 02:08:51;;;;;;;0.30;0.30;;;1.60;99.90;;;;;;5072951;28;20433;-85
2023/01/17 02:11:19;;;;;;;0.30;0.20;;;1.60;99.90;;;;;;5072814;28;20445;-84
2023/01/17 02:13:45;;;;;;;0.30;0.20;;;1.60;99.90;;;;;;5072852;28;20445;-85
2023/01/17 02:16:26;;;;;;;0.30;0.20;;;1.60;99.90;;;;;;5072413;28;20492;-85
2023/01/17 02:19:07;;;;;;;0.30;0.30;;;1.60;99.90;;;;;;5072548;28;20437;-84
2023/01/17 02:21:39;;;;;;;0.30;0.30;;;1.60;99.90;;;;;;5072808;28;20441;-84
2023/01/17 02:24:37;;;;;;;0.70;0.30;;;1.60;99.90;;;;;;5076338;28;20441;-84
2023/01/17 02:27:11;;;;;;;0.30;0.20;;;1.60;99.90;;;;;;5063746;28;20454;-84
2023/01/17 02:30:18;;;;;;;0.30;0.30;;;1.60;99.90;;;;;;5077143;28;20436;-85
2023/01/17 02:32:55;;;;;;;0.30;0.30;;;1.70;99.90;;;;;;5076185;28;20516;-85
2023/01/17 02:35:29;;;;;;;0.30;0.30;;;1.70;99.90;;;;;;5076582;28;20467;-85
2023/01/17 02:38:05;;;;;;;0.30;0.20;;;1.70;99.90;;;;;;5076222;28;20433;-85
2023/01/17 02:40:37;;;;;;;0.30;0.30;;;1.70;99.90;;;;;;5076166;28;20491;-85
2023/01/17 02:43:18;;;;;;;0.30;0.30;;;1.70;99.90;;;;;;5075901;28;20913;-85
2023/01/17 02:45:45;;;;;;;0.30;0.30;;;1.70;99.90;;;;;;5076009;28;20469;-84
2023/01/17 02:48:16;;;;;;;0.30;0.30;;;1.70;99.90;;;;;;5075811;28;20428;-84
2023/01/17 02:51:31;;;;;;;0.30;0.30;;;1.70;99.90;;;;;;5075672;28;20842;-84
2023/01/17 02:54:23;;;;;;;0.30;0.20;;;1.70;99.90;;;;;;5013710;28;20483;-84
2023/01/17 02:57:04;;;;;;;0.30;0.20;;;1.70;99.90;;;;;;5013440;28;20452;-84
2023/01/17 02:59:40;;;;;;;0.63;0.40;;;1.70;99.90;;;;;;5058018;28;20449;-84
2023/01/17 03:02:16;;;;;;;1.60;0.40;;;1.80;99.90;;;;;;5075459;28;20802;-84
2023/01/17 03:04:51;;;;;;;0.30;0.30;;;1.80;99.90;;;;;;5075681;28;20500;-84
2023/01/17 03:07:23;;;;;;;0.30;0.20;;;1.70;99.90;;;;;;5075735;28;20795;-84
2023/01/17 03:09:58;;;;;;;0.30;0.20;;;1.70;99.90;;;;;;5075646;28;20425;-84
2023/01/17 03:12:26;;;;;;;0.30;0.30;;;1.70;99.90;;;;;;5075502;28;20491;-84
2023/01/17 03:14:53;;;;;;;0.30;0.23;;;1.70;99.90;;;;;;5075156;28;20816;-83
2023/01/17 03:17:20;;;;;;;0.43;0.40;;;1.70;99.90;;;;;;5075462;28;20441;-84
2023/01/17 03:19:48;;;;;;;0.30;0.30;;;1.60;99.90;;;;;;5075141;28;20941;-84
2023/01/17 03:22:15;;;;;;;0.30;0.20;;;1.60;99.90;;;;;;5075298;28;20450;-84
2023/01/17 03:24:42;;;;;;;0.30;0.30;;;1.60;99.90;;;;;;5075627;28;20545;-84
2023/01/17 03:27:08;;;;;;;0.30;0.20;;;1.70;99.90;;;;;;5075242;28;20475;-84
2023/01/17 03:29:35;;;;;;;0.30;0.20;;;1.70;99.90;;;;;;5074946;28;20449;-84
2023/01/17 03:32:02;;;;;;;0.30;0.30;;;1.70;99.90;;;;;;5074823;28;21015;-84
2023/01/17 03:34:28;;;;;;;0.30;0.30;;;1.70;99.90;;;;;;5074725;28;20480;-84
2023/01/17 03:36:56;;;;;;;1.13;0.90;;;1.80;99.90;;;;;;5074736;28;20453;-84
2023/01/17 03:39:23;;;;;;;0.30;0.20;;;1.80;99.90;;;;;;5075010;28;20458;-84
2023/01/17 03:41:50;;;;;;;0.30;0.30;;;1.70;99.90;;;;;;5075723;28;20453;-84
2023/01/17 03:44:17;;;;;;;0.30;0.20;;;1.60;99.90;;;;;;5074788;28;20823;-84
2023/01/17 03:46:43;;;;;;;0.30;0.30;;;1.60;99.90;;;;;;5074729;28;20438;-83
2023/01/17 03:49:10;;;;;;;0.30;0.30;;;1.50;99.90;;;;;;5074922;28;20453;-83
2023/01/17 03:51:37;;;;;;;0.30;0.20;;;1.40;99.90;;;;;;5074632;28;20448;-83
2023/01/17 03:54:05;;;;;;;0.30;0.20;;;1.40;99.90;;;;;;5074770;28;20476;-84
2023/01/17 03:56:32;;;;;;;0.30;0.30;;;1.40;99.90;;;;;;5074578;28;20434;-84
2023/01/17 03:58:59;;;;;;;0.30;0.30;;;1.40;99.90;;;;;;5074718;28;20457;-84
2023/01/17 04:01:25;;;;;;;0.30;0.30;;;1.30;99.90;;;;;;5075267;28;20793;-84
2023/01/17 04:03:52;;;;;;;0.30;0.20;;;1.30;99.90;;;;;;5074278;28;20445;-84
2023/01/17 04:06:19;;;;;;;0.30;0.30;;;1.30;99.90;;;;;;5074421;28;20471;-84
2023/01/17 04:08:46;;;;;;;0.30;0.20;;;1.30;99.90;;;;;;5074505;28;20806;-84
2023/01/17 04:11:14;;;;;;;0.30;0.30;;;1.30;99.90;;;;;;5074342;28;20499;-83
2023/01/17 04:13:40;;;;;;;0.30;0.27;;;1.20;99.90;;;;;;5074335;28;20538;-84
2023/01/17 04:16:11;;;;;;;0.30;0.30;;;1.20;99.90;;;;;;5073825;28;20539;-84
2023/01/17 04:18:38;;;;;;;0.30;0.20;;;1.10;99.90;;;;;;5074781;28;20448;-83
2023/01/17 04:21:06;;;;;;;0.30;0.30;;;1.10;99.90;;;;;;5074228;28;20461;-85
2023/01/17 04:23:33;;;;;;;0.30;0.30;;;1.10;99.90;;;;;;5074123;28;20552;-85
2023/01/17 04:26:00;;;;;;;0.30;0.20;;;1.00;99.90;;;;;;5074028;28;20469;-85
2023/01/17 04:28:28;;;;;;;0.30;0.30;;;1.00;99.90;;;;;;5074319;28;20538;-85
2023/01/17 04:30:57;;;;;;;0.30;0.30;;;0.90;99.90;;;;;;5073673;28;20445;-85
2023/01/17 04:33:24;;;;;;;0.30;0.30;;;0.90;99.90;;;;;;5073899;28;20485;-85
2023/01/17 04:35:52;;;;;;;0.40;0.30;;;0.90;99.90;;;;;;5073872;28;21014;-85
2023/01/17 04:38:19;;;;;;;0.30;0.30;;;0.90;99.90;;;;;;5073878;28;20810;-85
2023/01/17 04:40:47;;;;;;;0.30;0.30;;;0.90;99.90;;;;;;5073666;28;20921;-85
2023/01/17 04:43:14;;;;;;;0.30;0.20;;;0.90;99.90;;;;;;5073837;28;20889;-85
2023/01/17 04:45:42;;;;;;;0.40;0.30;;;0.90;99.90;;;;;;5073156;28;20473;-85
2023/01/17 04:48:11;;;;;;;0.30;0.20;;;0.90;99.90;;;;;;5073803;28;20788;-85
2023/01/17 04:50:38;;;;;;;0.30;0.20;;;0.90;99.90;;;;;;5073772;28;20456;-85
2023/01/17 04:53:05;;;;;;;0.30;0.30;;;0.90;99.90;;;;;;5073603;28;20473;-85
2023/01/17 04:55:32;;;;;;;0.30;0.30;;;0.90;99.90;;;;;;5073606;28;20493;-85
2023/01/17 04:57:58;;;;;;;0.30;0.20;;;1.00;99.90;;;;;;5073328;28;20457;-85
2023/01/17 05:00:25;;;;;;;0.30;0.30;;;1.10;99.90;;;;;;5073646;28;20445;-85
2023/01/17 05:02:53;;;;;;;0.30;0.30;;;1.10;99.90;;;;;;5073595;28;20453;-85
2023/01/17 05:05:20;;;;;;;0.30;0.30;;;1.20;99.90;;;;;;5073524;28;20473;-85
2023/01/17 05:07:53;;;;;;;0.30;0.20;;;1.20;99.90;;;;;;5073207;28;20463;-85
2023/01/17 05:10:20;;;;;;;0.30;0.30;;;1.30;99.90;;;;;;5073252;28;21043;-85
2023/01/17 05:12:54;;;;;;;0.30;0.20;;;1.30;99.90;;;;;;5073358;28;20489;-85
2023/01/17 05:15:20;;;;;;;0.30;0.20;;;1.40;99.90;;;;;;5073177;28;20477;-85
2023/01/17 05:17:47;;;;;;;0.30;0.30;;;1.40;99.90;;;;;;5073457;28;20477;-85
2023/01/17 05:20:16;;;;;;;0.30;0.20;;;1.40;99.90;;;;;;5073399;28;20444;-85
2023/01/17 05:22:43;;;;;;;0.30;0.20;;;1.40;99.90;;;;;;5073474;28;20442;-84
2023/01/17 05:25:10;;;;;;;0.30;0.30;;;1.40;99.90;;;;;;5073367;28;20473;-85
2023/01/17 05:27:37;;;;;;;2.70;0.50;;;1.40;99.90;;;;;;5073270;28;20450;-85
2023/01/17 05:30:04;;;;;;;0.30;0.20;;;1.50;99.90;;;;;;5072990;28;20442;-85
2023/01/17 05:32:31;;;;;;;0.30;0.30;;;1.40;99.90;;;;;;5073162;28;20481;-85
2023/01/17 05:34:57;;;;;;;0.30;0.20;;;1.40;99.90;;;;;;5072954;28;20457;-85
2023/01/17 05:37:25;;;;;;;0.30;0.30;;;1.40;99.90;;;;;;5072971;28;20921;-83
2023/01/17 05:39:52;;;;;;;0.40;0.30;;;1.40;99.90;;;;;;5072823;28;20859;-82
2023/01/17 05:42:19;;;;;;;0.40;0.40;;;1.40;99.90;;;;;;5072920;28;20850;-83
2023/01/17 05:44:45;;;;;;;0.30;0.20;;;1.40;99.90;;;;;;5072813;28;20473;-83
2023/01/17 05:47:12;;;;;;;1.60;0.63;;;1.40;99.90;;;;;;5073269;28;20445;-82
2023/01/17 05:49:39;;;;;;;0.40;0.40;;;1.40;99.90;;;;;;5072761;28;20929;-83
2023/01/17 05:52:05;;;;;;;0.50;0.40;;;1.40;99.90;;;;;;5073137;28;20777;-84
2023/01/17 05:54:33;;;;;;;0.63;0.40;;;1.30;99.90;;;;;;5072924;28;20500;-85
2023/01/17 05:57:00;;;;;;;0.30;0.30;;;1.30;99.90;;;;;;5075228;28;20445;-85
2023/01/17 05:59:27;;;;;;;0.30;0.30;;;1.30;99.90;;;;;;5076992;28;20456;-85
2023/01/17 06:01:53;;;;;;;0.30;0.20;;;1.20;99.90;;;;;;5076588;28;20456;-85
2023/01/17 06:04:20;;;;;;;0.30;0.30;;;1.20;99.90;;;;;;5076571;28;20963;-85
2023/01/17 06:06:47;;;;;;;0.30;0.30;;;1.20;99.90;;;;;;5076821;28;20442;-85
2023/01/17 06:09:14;;;;;;;0.30;0.30;;;1.20;99.90;;;;;;5076473;28;20452;-84
2023/01/17 06:11:42;;;;;;;0.30;0.30;;;1.20;99.90;;;;;;5076750;28;20849;-85
2023/01/17 06:14:08;;;;;;;0.30;0.20;;;1.20;99.90;;;;;;5076555;28;20477;-84
2023/01/17 06:16:35;;;;;;;0.60;0.40;;;1.20;99.90;;;;;;5076273;28;20984;-85
2023/01/17 06:19:02;;;;;;;0.37;0.27;;;1.20;99.90;;;;;;5077254;28;20790;-83
2023/01/17 06:21:29;;;;;;;0.30;0.30;;;1.20;99.90;;;;;;5076544;28;20933;-83
2023/01/17 06:23:56;;;;;;;0.40;0.40;;;1.20;99.90;;;;;;5077086;28;20437;-85
2023/01/17 06:26:23;;;;;;;0.30;0.30;;;1.30;99.90;;;;;;5076836;28;20486;-85
2023/01/17 06:28:51;;;;;;;0.30;0.20;;;1.30;99.90;;;;;;5076526;28;20456;-85
2023/01/17 06:31:18;;;;;;;0.30;0.20;;;1.30;99.90;;;;;;5076031;28;20945;-85
2023/01/17 06:33:44;;;;;;;0.30;0.20;;;1.30;99.90;;;;;;5076307;28;20520;-85
2023/01/17 06:36:11;;;;;;;0.30;0.20;;;1.20;99.90;;;;;;5076314;28;20531;-86
2023/01/17 06:38:38;;;;;;;0.50;0.30;;;1.10;99.90;;;;;;5076262;28;20457;-85
2023/01/17 06:41:05;;;;;;;0.30;0.20;;;1.10;99.90;;;;;;5076229;28;20445;-85
2023/01/17 06:43:33;;;;;;;0.30;0.20;;;1.00;99.90;;;;;;5076139;28;20445;-85
2023/01/17 06:46:01;;;;;;;0.40;0.40;;;1.00;99.90;;;;;;5076146;28;20505;-85
2023/01/17 06:48:28;;;;;;;0.30;0.20;;;1.00;99.90;;;;;;5076341;28;20458;-85
2023/01/17 06:50:56;;;;;;;0.80;0.40;;;1.00;99.90;;;;;;5076062;28;20450;-85
2023/01/17 06:53:23;;;;;;;0.30;0.30;;;1.00;99.90;;;;;;5075999;28;20996;-85
2023/01/17 06:55:51;;;;;;;0.30;0.20;;;1.00;99.90;;;;;;5077269;28;20480;-85
2023/01/17 06:58:18;;;;;;;0.30;0.20;;;1.00;99.90;;;;;;5076129;28;20453;-86
2023/01/17 07:00:44;;;;;;;0.30;0.20;;;1.00;99.90;;;;;;5075762;28;20453;-85
2023/01/17 07:03:19;;;;;;;0.30;0.20;;;1.10;99.90;;;;;;5075863;28;20452;-86
2023/01/17 07:05:45;;;;;;;0.30;0.20;;;1.10;99.90;;;;;;5076040;28;20560;-86
2023/01/17 07:08:12;;;;;;;0.30;0.30;;;1.10;99.90;;;;;;5075280;28;20445;-86
2023/01/17 07:10:39;;;;;;;0.30;0.20;;;1.10;99.90;;;;;;5075776;28;20449;-86
2023/01/17 07:13:06;;;;;;;0.30;0.30;;;1.10;99.90;;;;;;5075332;28;20480;-85
2023/01/17 07:15:32;;;;;;;0.30;0.30;;;1.00;99.90;;;;;;5075425;28;20558;-86
2023/01/17 07:18:00;;;;;;;0.30;0.30;;;1.00;99.90;;;;;;5075692;28;20445;-86
2023/01/17 07:20:29;;;;;;;0.30;0.27;;;1.00;99.90;;;;;;5075794;28;20457;-86
2023/01/17 07:22:56;;;;;;;0.30;0.20;;;1.00;99.90;;;;;;5075198;28;20949;-86
2023/01/17 07:25:22;;;;;;;0.30;0.30;;;0.90;99.90;;;;;;5075323;28;20457;-86
2023/01/17 07:27:52;;;;;;;0.30;0.20;;;0.90;99.90;;;;;;5076274;28;20445;-86
2023/01/17 07:30:19;;;;;;;0.30;0.30;;;0.80;99.90;;;;;;5075401;28;20456;-86
2023/01/17 07:32:50;;;;;;;0.40;0.33;;;0.80;99.90;;;;;;5075576;28;20449;-86
2023/01/17 07:35:17;;;;;;;0.70;0.40;;;0.80;99.90;;;;;;5075360;28;20457;-84
2023/01/17 07:37:48;;;;;;;0.37;0.37;;;0.80;99.90;;;;;;5075578;28;20467;-86
2023/01/17 07:40:16;;;;;;;0.30;0.20;;;0.80;99.90;;;;;;5075877;28;20534;-85
2023/01/17 07:42:43;;;;;;;0.30;0.20;;;0.80;99.90;;;;;;5075365;28;20484;-86
2023/01/17 07:45:11;;;;;;;0.30;0.20;;;0.80;99.90;;;;;;5075158;28;20579;-86
2023/01/17 07:47:38;;;;;;;2.00;0.50;;;0.80;99.90;;;;;;5075365;28;20952;-86
2023/01/17 07:50:05;;;;;;;0.30;0.20;;;0.80;99.90;;;;;;5075693;28;20446;-86
2023/01/17 07:52:32;;;;;;;0.30;0.20;;;0.80;99.90;;;;;;5075483;28;20495;-86
2023/01/17 07:55:00;;;;;;;0.30;0.30;;;0.80;99.90;;;;;;5075273;28;20485;-86
2023/01/17 07:57:27;;;;;;;0.30;0.20;;;0.90;99.90;;;;;;5075977;28;20438;-86
2023/01/17 07:59:54;;;;;;;0.30;0.30;;;0.90;99.90;;;;;;5075467;28;20457;-86
2023/01/17 08:02:23;;;;;;;0.30;0.20;;;0.90;99.90;;;;;;5075229;28;20975;-86
2023/01/17 08:04:50;;;;;;;0.30;0.20;;;1.00;99.90;;;;;;5074932;28;20462;-87
2023/01/17 08:07:17;;;;;;;0.60;0.60;;;1.10;99.90;;;;;;5075754;28;20948;-85
2023/01/17 08:09:48;;;;;;;0.30;0.20;;;1.10;99.90;;;;;;5076346;28;20434;-86
2023/01/17 08:12:16;;;;;;;0.30;0.30;;;1.20;99.90;;;;;;5075012;28;20446;-86
2023/01/17 08:14:47;;;;;;;0.40;0.30;;;1.10;99.90;;;;;;5075049;28;20485;-89
2023/01/17 08:17:15;;;;;;;0.30;0.30;;;1.20;99.90;;;;;;5075757;28;20799;-87
2023/01/17 08:19:43;;;;;;;0.30;0.20;;;1.20;99.90;;;;;;5074618;28;20477;-87
2023/01/17 08:22:10;;;;;;;0.30;0.30;;;1.30;99.90;;;;;;5074818;28;20492;-86
2023/01/17 08:24:37;;;;;;;0.33;0.30;;;1.40;99.90;;;;;;5074928;28;20465;-87
2023/01/17 08:27:04;;;;;;;0.30;0.30;;;1.40;99.90;;;;;;5074584;28;20944;-87
2023/01/17 08:29:32;;;;;;;0.30;0.27;;;1.50;99.90;;;;;;5074680;28;20449;-86
2023/01/17 08:31:59;;;;;;;0.30;0.20;;;1.60;99.90;;;;;;5074355;28;20441;-87
2023/01/17 08:34:27;;;;;;;0.40;0.30;;;1.70;99.90;;;;;;5074098;28;21000;-87
2023/01/17 08:37:00;;;;;;;0.40;0.40;;;1.80;99.90;;;;;;5074506;28;20460;-86
2023/01/17 08:39:27;;;;;;;0.30;0.30;;;1.90;99.90;;;;;;5074011;28;20426;-86
2023/01/17 08:41:54;;;;;;;3.43;0.50;;;2.10;99.90;;;;;;5075040;28;20449;-86
2023/01/17 08:44:21;;;;;;;0.30;0.30;;;2.20;99.90;;;;;;5073736;28;20897;-86
2023/01/17 08:46:49;;;;;;;0.37;0.27;;;2.20;99.90;;;;;;5074449;28;20453;-85
2023/01/17 08:49:16;;;;;;;0.30;0.30;;;2.30;99.90;;;;;;5073819;28;20457;-85
2023/01/17 08:51:44;;;;;;;0.43;0.43;;;2.30;99.90;;;;;;5073697;28;20448;-86
2023/01/17 08:54:13;;;;;;;0.30;0.30;;;2.30;99.90;;;;;;5074486;28;20470;-84
2023/01/17 08:56:41;;;;;;;0.30;0.20;;;2.20;99.90;;;;;;5080028;28;20472;-84
2023/01/17 08:59:10;;;;;;;0.30;0.30;;;2.30;99.90;;;;;;5081595;28;20949;-84
2023/01/17 09:01:39;;;;;;;0.50;0.30;;;2.30;99.90;;;;;;5078107;28;20452;-85
2023/01/17 09:04:08;;;;;;;0.30;0.20;;;2.30;99.90;;;;;;5074079;28;20457;-86
2023/01/17 09:06:37;;;;;;;0.30;0.30;;;2.30;99.90;;;;;;5073864;28;20503;-86
2023/01/17 09:09:04;;;;;;;0.57;0.50;;;2.40;99.90;;;;;;5073893;28;20536;-86
2023/01/17 09:11:30;;;;;;;0.30;0.30;;;2.50;99.90;;;;;;5073725;28;20461;-86
2023/01/17 09:13:57;;;;;;;0.30;0.20;;;3.00;99.90;;;;;;5073605;28;20485;-86
2023/01/17 09:16:24;;;;;;;0.30;0.20;;;3.60;99.90;;;;;;5074037;28;20481;-86
2023/01/17 09:18:54;;;;;;;0.40;0.30;;;3.70;99.90;;;;;;5076586;28;20442;-85
2023/01/17 09:21:22;;;;;;;0.30;0.30;;;3.70;99.90;;;;;;5075758;28;20913;-86
2023/01/17 09:23:49;;;;;;;1.27;1.27;;;4.00;99.90;;;;;;5075250;28;20483;-84
2023/01/17 09:26:19;;;;;;;0.30;0.30;;;5.50;99.90;;;;;;5075162;28;21011;-85
2023/01/17 09:28:46;;;;;;;0.30;0.20;;;6.70;99.90;;;;;;5075570;28;20776;-85
2023/01/17 09:31:13;;;;;;;0.40;0.40;;;7.80;99.90;;;;;;5076376;28;20494;-85
2023/01/17 09:33:41;;;;;;;1.00;0.40;;;8.60;99.90;;;;;;5078420;28;20446;-84
2023/01/17 09:36:08;;;;;;;1.23;0.50;;;9.30;99.90;;;;;;5078279;28;20982;-84
2023/01/17 09:38:37;;;;;;;1.00;0.40;;;9.40;99.90;;;;;;5078968;28;20445;-85
2023/01/17 09:41:15;;;;;;;0.40;0.40;;;8.40;99.90;;;;;;5078761;28;20958;-84
2023/01/17 09:43:47;;;;;;;0.37;0.33;;;7.60;99.90;;;;;;5079152;28;20440;-85
2023/01/17 09:46:21;;;;;;;0.30;0.30;;;7.20;99.90;;;;;;5077962;28;20472;-85
2023/01/17 09:48:52;;;;;;;0.50;0.43;;;7.30;99.90;;;;;;5077378;28;20441;-85
2023/01/17 09:51:22;;;;;;;0.30;0.30;;;7.30;99.90;;;;;;5077245;28;20425;-85
2023/01/17 09:53:52;;;;;;;0.30;0.20;;;7.40;99.90;;;;;;5077260;28;20871;-86
2023/01/17 09:56:28;;;;;;;0.50;0.40;;;7.40;99.90;;;;;;5077016;28;20449;-87
2023/01/17 09:59:18;;;;;;;0.30;0.30;;;7.60;99.90;;;;;;5077334;28;20444;-86
2023/01/17 10:01:52;;;;;;;0.30;0.30;;;7.50;99.90;;;;;;5077127;28;20441;-85
2023/01/17 10:04:32;;;;;;;0.40;0.30;;;7.60;99.90;;;;;;5076839;28;20435;-85
2023/01/17 10:07:11;;;;;;;0.30;0.20;;;8.50;99.90;;;;;;5077561;28;20442;-85
2023/01/17 10:09:56;;;;;;;2.03;1.93;;;9.50;99.90;;;;;;5076790;28;20437;-85
2023/01/17 10:12:31;;;;;;;1.37;0.67;;;10.50;99.90;;;;;;5077332;28;20433;-85
2023/01/17 10:15:24;;;;;;;0.30;0.30;;;10.60;99.90;;;;;;5076263;28;20499;-85
2023/01/17 10:18:00;;;;;;;0.30;0.30;;;11.00;99.90;;;;;;5068682;28;20454;-85
2023/01/17 10:20:42;;;;;;;0.63;0.40;;;11.40;99.90;;;;;;5076726;28;20866;-85
2023/01/17 10:23:29;;;;;;;0.40;0.30;;;11.40;99.90;;;;;;5076207;28;20429;-85
2023/01/17 10:26:01;;;;;;;0.33;0.30;;;10.70;99.90;;;;;;5076188;28;20453;-85
2023/01/17 10:28:32;;;;;;;0.40;0.40;;;9.80;99.90;;;;;;5076363;28;20430;-86
2023/01/17 10:31:03;;;;;;;0.50;0.33;;;8.80;99.90;;;;;;5076473;28;20433;-85
2023/01/17 10:33:37;;;;;;;0.30;0.20;;;7.50;99.90;;;;;;5076194;28;20426;-85
2023/01/17 10:36:09;;;;;;;0.30;0.20;;;6.80;99.90;;;;;;5076011;28;21004;-87
2023/01/17 10:38:38;;;;;;;0.30;0.20;;;6.20;99.90;;;;;;5076367;28;20434;-86
2023/01/17 10:41:10;;;;;;;0.50;0.33;;;5.80;99.90;;;;;;5076355;28;20964;-86
2023/01/17 10:43:46;;;;;;;0.50;0.47;;;5.50;99.90;;;;;;5075340;28;20410;-86
2023/01/17 10:46:18;;;;;;;0.30;0.20;;;5.30;99.90;;;;;;5075980;28;20976;-86
2023/01/17 10:48:48;;;;;;;0.40;0.33;;;5.20;99.90;;;;;;5076184;28;20430;-85
2023/01/17 10:51:48;;;;;;;0.30;0.20;;;5.10;99.90;;;;;;5075748;28;20479;-87
2023/01/17 10:54:28;;;;;;;0.30;0.20;;;5.20;99.90;;;;;;5074984;28;20936;-86
2023/01/17 10:56:56;;;;;;;0.30;0.20;;;5.20;99.90;;;;;;5075809;28;20936;-85
2023/01/17 10:59:28;;;;;;;0.40;0.30;;;5.20;99.90;;;;;;5079909;28;20453;-85
2023/01/17 11:01:55;;;;;;;0.30;0.20;;;5.30;99.90;;;;;;5080353;28;20488;-85
2023/01/17 11:04:31;;;;;;;0.30;0.20;;;5.20;99.90;;;;;;5079996;28;20953;-85
2023/01/17 11:07:12;;;;;;;0.30;0.30;;;5.20;99.90;;;;;;5079471;28;20496;-85
2023/01/17 11:09:41;;;;;;;0.30;0.30;;;5.10;99.90;;;;;;5079421;28;20438;-86
2023/01/17 11:12:18;;;;;;;0.30;0.20;;;4.90;99.90;;;;;;5079327;28;20818;-86
2023/01/17 11:14:57;;;;;;;0.30;0.20;;;4.80;99.90;;;;;;5078399;28;20618;-86
2023/01/17 11:17:26;;;;;;;0.40;0.30;;;4.70;99.90;;;;;;5079392;28;20465;-85
2023/01/17 11:19:54;;;;;;;0.30;0.20;;;4.60;99.90;;;;;;5079480;28;20453;-86
2023/01/17 11:22:22;;;;;;;0.30;0.30;;;4.60;99.90;;;;;;5079565;28;20449;-85
2023/01/17 11:24:53;;;;;;;0.63;0.50;;;4.70;99.90;;;;;;5078188;28;20469;-83
2023/01/17 11:27:27;;;;;;;0.30;0.30;;;4.80;99.90;;;;;;5081055;28;20433;-83
2023/01/17 11:30:08;;;;;;;0.30;0.20;;;4.80;99.90;;;;;;5082106;28;20429;-83
2023/01/17 11:32:35;;;;;;;0.30;0.20;;;4.80;99.90;;;;;;5079459;28;20473;-85
2023/01/17 11:35:17;;;;;;;0.30;0.30;;;4.80;99.90;;;;;;5078332;28;21008;-86
2023/01/17 11:37:51;;;;;;;0.30;0.30;;;4.80;99.90;;;;;;5079418;28;20434;-85
2023/01/17 11:40:23;;;;;;;0.30;0.20;;;4.80;99.90;;;;;;5078186;28;20441;-85
2023/01/17 11:43:01;;;;;;;0.30;0.20;;;4.80;99.90;;;;;;5078696;28;20434;-85
2023/01/17 11:45:29;;;;;;;0.40;0.30;;;4.90;99.90;;;;;;5077724;28;20461;-86
2023/01/17 11:48:11;;;;;;;0.30;0.30;;;5.00;99.90;;;;;;5077628;28;20450;-85
2023/01/17 11:50:41;;;;;;;0.37;0.37;;;5.00;99.90;;;;;;5077446;28;20441;-85
2023/01/17 11:53:17;;;;;;;0.30;0.20;;;5.10;99.90;;;;;;5075433;28;20429;-83
2023/01/17 11:55:56;;;;;;;0.30;0.20;;;5.20;99.90;;;;;;5074409;28;20481;-83
2023/01/17 11:58:26;;;;;;;0.30;0.20;;;5.20;99.90;;;;;;5075202;28;20464;-83
2023/01/17 12:01:00;;;;;;;0.30;0.30;;;5.20;99.90;;;;;;5075095;28;20449;-83
2023/01/17 12:03:47;;;;;;;1.37;0.30;;;5.20;99.90;;;;;;5076097;28;20460;-83
2023/01/17 12:06:21;;;;;;;0.30;0.20;;;5.00;99.90;;;;;;5075173;28;20461;-83
2023/01/17 12:09:01;;;;;;;0.30;0.20;;;5.00;99.90;;;;;;5074986;28;20445;-83
2023/01/17 12:11:38;;;;;;;0.40;0.30;;;4.90;99.90;;;;;;5075640;28;20429;-83
2023/01/17 12:14:16;;;;;;;0.30;0.20;;;5.10;99.90;;;;;;5075157;28;20834;-83
2023/01/17 12:17:01;;;;;;;0.30;0.30;;;5.10;99.90;;;;;;5074590;28;20929;-83
2023/01/17 12:19:40;;;;;;;0.47;0.33;;;5.10;99.90;;;;;;5075113;28;20434;-83
2023/01/17 12:22:23;;;;;;;0.30;0.30;;;5.10;99.90;;;;;;5075020;28;20430;-83
2023/01/17 12:25:05;;;;;;;0.30;0.30;;;5.00;99.90;;;;;;5079933;28;20503;-87
2023/01/17 12:27:42;;;;;;;0.40;0.27;;;5.00;99.90;;;;;;5079396;28;20422;-88
2023/01/17 12:30:24;;;;;;;0.30;0.30;;;4.90;99.90;;;;;;5077611;28;20823;-88
2023/01/17 12:33:07;;;;;;;0.50;0.40;;;4.90;99.90;;;;;;5079200;28;20429;-89
2023/01/17 12:35:39;;;;;;;0.30;0.20;;;4.80;99.90;;;;;;5080369;28;20493;-88
2023/01/17 12:38:09;;;;;;;0.30;0.30;;;4.60;99.90;;;;;;5080489;28;20920;-87
2023/01/17 12:40:43;;;;;;;0.30;0.20;;;4.50;99.90;;;;;;5079847;28;20427;-87
2023/01/17 12:43:19;;;;;;;0.30;0.20;;;4.40;99.90;;;;;;5078993;28;20430;-87
2023/01/17 12:45:49;;;;;;;0.30;0.30;;;4.40;99.90;;;;;;5079012;28;20899;-87
2023/01/17 12:48:18;;;;;;;0.30;0.30;;;4.30;99.90;;;;;;5079945;28;20526;-88
2023/01/17 12:50:52;;;;;;;0.30;0.20;;;4.30;99.90;;;;;;5078495;28;20438;-87
2023/01/17 12:53:27;;;;;;;0.33;0.27;;;4.40;99.90;;;;;;5080926;28;20432;-87
2023/01/17 12:56:00;;;;;;;0.60;0.40;;;4.40;99.90;;;;;;5085334;28;20477;-87
2023/01/17 12:58:29;;;;;;;0.30;0.20;;;4.30;99.90;;;;;;5085358;28;20430;-87
2023/01/17 13:01:02;;;;;;;0.30;0.30;;;4.30;99.90;;;;;;5086188;28;20445;-87
2023/01/17 13:03:40;;;;;;;0.30;0.20;;;4.30;99.90;;;;;;5087498;28;20406;-87
2023/01/17 13:06:08;;;;;;;0.30;0.20;;;4.30;99.90;;;;;;5084502;28;20476;-87
2023/01/17 13:08:41;;;;;;;0.30;0.20;;;4.40;99.90;;;;;;5086467;28;20458;-87
2023/01/17 13:11:15;;;;;;;0.30;0.20;;;4.20;99.90;;;;;;5087468;28;20434;-87
2023/01/17 13:13:58;;;;;;;0.37;0.37;;;4.10;99.90;;;;;;5082644;28;20465;-87
2023/01/17 13:16:32;;;;;;;0.30;0.30;;;4.10;99.90;;;;;;5079252;28;20552;-87
2023/01/17 13:19:06;;;;;;;0.30;0.20;;;4.30;99.90;;;;;;5080163;28;20888;-86
2023/01/17 13:21:34;;;;;;;0.30;0.20;;;4.40;99.90;;;;;;5079383;28;20441;-87
2023/01/17 13:24:21;;;;;;;0.30;0.20;;;4.40;99.90;;;;;;5079104;28;20776;-87
2023/01/17 13:27:12;;;;;;;0.30;0.20;;;4.30;99.90;;;;;;5080373;28;20897;-87
2023/01/17 13:29:52;;;;;;;0.30;0.20;;;4.30;99.90;;;;;;5073588;28;20426;-78
2023/01/17 13:32:37;;;;;;;0.30;0.30;;;4.30;99.90;;;;;;5073326;28;20425;-79
2023/01/17 13:35:20;;;;;;;0.30;0.20;;;4.30;99.90;;;;;;5073154;28;20550;-79
2023/01/17 13:38:09;;;;;;;0.30;0.30;;;4.30;99.90;;;;;;5073232;28;20436;-79
2023/01/17 13:40:43;;;;;;;0.30;0.30;;;4.30;99.90;;;;;;5072931;28;20559;-80
2023/01/17 13:43:14;;;;;;;0.40;0.30;;;4.40;99.90;;;;;;5072892;28;20433;-79
2023/01/17 13:45:41;;;;;;;0.80;0.53;;;4.40;99.90;;;;;;5073056;28;20470;-79
2023/01/17 13:48:37;;;;;;;0.83;0.40;;;4.30;99.90;;;;;;5073088;28;20449;-80
2023/01/17 13:51:04;;;;;;;0.30;0.30;;;4.30;99.90;;;;;;5073487;28;20441;-79
2023/01/17 13:53:56;;;;;;;0.30;0.20;;;4.30;99.90;;;;;;5073058;28;20446;-79
2023/01/17 13:56:42;;;;;;;0.30;0.30;;;4.20;99.90;;;;;;5072940;28;20489;-79
2023/01/17 13:59:30;;;;;;;0.30;0.30;;;4.10;99.90;;;;;;5072993;28;20531;-79
2023/01/17 14:01:57;;;;;;;0.30;0.20;;;4.00;99.90;;;;;;5072683;28;20924;-79
2023/01/17 14:05:03;;;;;;;0.73;0.40;;;4.00;99.90;;;;;;5072854;28;20449;-79
2023/01/17 14:07:34;;;;;;;0.30;0.20;;;4.00;99.90;;;;;;5072536;28;20444;-79
2023/01/17 14:10:01;;;;;;;0.30;0.20;;;3.90;99.90;;;;;;5072602;28;20921;-79
2023/01/17 14:12:32;;;;;;;3.90;0.77;;;3.90;99.90;;;;;;5072846;28;20437;-79
2023/01/17 14:15:01;;;;;;;0.30;0.30;;;3.90;99.90;;;;;;5072485;28;20476;-79
2023/01/17 14:17:57;;;;;;;0.30;0.20;;;3.90;99.90;;;;;;5074131;28;20445;-79
2023/01/17 14:21:04;;;;;;;0.30;0.20;;;3.90;99.90;;;;;;5078530;28;20799;-86
2023/01/17 14:23:58;;;;;;;0.30;0.20;;;3.80;99.90;;;;;;5079077;28;20998;-85
2023/01/17 14:26:36;;;;;;;0.70;0.40;;;3.70;99.90;;;;;;5073778;28;20470;-85
2023/01/17 14:29:40;;;;;;;0.30;0.20;;;3.70;99.90;;;;;;5081318;28;20465;-86
2023/01/17 14:32:10;;;;;;;0.47;0.47;;;3.80;99.90;;;;;;5080527;28;20445;-85
2023/01/17 14:34:37;;;;;;;0.40;0.30;;;3.80;99.90;;;;;;5081540;28;20465;-85
2023/01/17 14:37:13;;;;;;;0.30;0.30;;;3.80;99.90;;;;;;5081164;28;20545;-86
2023/01/17 14:39:45;;;;;;;0.30;0.20;;;3.80;99.90;;;;;;5081658;28;20493;-86
2023/01/17 14:42:15;;;;;;;0.30;0.20;;;3.90;99.90;;;;;;5080876;28;20434;-86
2023/01/17 14:44:46;;;;;;;0.40;0.30;;;3.80;99.90;;;;;;5080446;28;20972;-86